Time;durP1;ratioP1;P1;durP2;ratioP2;P2;SDS_P1;SDS_P2;PMS_P1;PMS_P2;Temp;Humidity;BMP_temperature;BMP_pressure;BME280_temperature;BME280_humidity;BME280_pressure;Samples;Min_cycle;Max_cycle;Signal;HPM_P1;HPM_P2
2023/10/13 00:01:23;;;;;;;1999.90;999.90;;;;;;;19.03;100.00;95501.97;5064068;28;20241;-46
2023/10/13 00:03:52;;;;;;;1999.90;999.90;;;;;;;18.98;100.00;95499.81;5063580;28;20174;-51
2023/10/13 00:06:18;;;;;;;1999.90;999.90;;;;;;;18.89;100.00;95502.50;5063305;28;20224;-50
2023/10/13 00:08:44;;;;;;;1999.90;999.90;;;;;;;18.84;100.00;95500.34;5063525;28;20237;-50
2023/10/13 00:11:14;;;;;;;1999.90;999.90;;;;;;;18.79;100.00;95503.69;5063995;28;20177;-47
2023/10/13 00:13:52;;;;;;;1999.90;999.90;;;;;;;18.74;100.00;95499.53;5063498;28;20174;-49
2023/10/13 00:16:21;;;;;;;1999.90;999.90;;;;;;;18.67;100.00;95497.03;5063953;28;20192;-48
2023/10/13 00:18:54;;;;;;;1999.90;999.90;;;;;;;18.59;100.00;95500.50;5064063;28;20170;-48
2023/10/13 00:21:30;;;;;;;1999.90;999.90;;;;;;;18.51;100.00;95504.78;5067797;28;20454;-49
2023/10/13 00:23:56;;;;;;;1999.90;999.90;;;;;;;18.43;100.00;95509.78;5067782;28;20166;-49
2023/10/13 00:26:28;;;;;;;1999.90;999.90;;;;;;;18.35;100.00;95502.97;5067217;28;20196;-47
2023/10/13 00:31:42;;;;;;;1999.90;999.90;;;;;;;18.27;100.00;95490.59;5068225;28;20155;-49
2023/10/13 00:34:12;;;;;;;1999.90;999.90;;;;;;;18.25;100.00;95497.81;5067526;28;20193;-49
2023/10/13 00:36:48;;;;;;;1999.90;999.90;;;;;;;18.27;100.00;95495.34;5067576;28;20485;-48
2023/10/13 00:39:16;;;;;;;1999.90;999.90;;;;;;;18.31;100.00;95496.75;5067569;28;20177;-53
2023/10/13 00:41:52;;;;;;;1999.90;999.90;;;;;;;18.32;100.00;95497.56;5066933;28;20235;-50
2023/10/13 00:44:37;;;;;;;1999.90;999.90;;;;;;;18.32;100.00;95492.03;5067352;28;20198;-49
2023/10/13 00:47:03;;;;;;;1999.90;999.90;;;;;;;18.30;100.00;95489.69;5067433;28;20181;-52
2023/10/13 00:49:30;;;;;;;1999.90;999.90;;;;;;;18.31;100.00;95490.44;5066735;28;20174;-52
2023/10/13 00:51:56;;;;;;;1999.90;999.90;;;;;;;18.30;100.00;95494.44;5067191;28;20204;-51
2023/10/13 00:54:26;;;;;;;1999.90;999.90;;;;;;;18.28;100.00;95491.38;5067130;28;20198;-52
2023/10/13 00:57:04;;;;;;;1999.90;999.90;;;;;;;18.25;100.00;95495.03;5067111;28;20242;-51
2023/10/13 00:59:36;;;;;;;1999.90;999.90;;;;;;;18.24;100.00;95499.78;5067207;28;20161;-49
2023/10/13 01:02:37;;;;;;;1999.90;999.90;;;;;;;18.22;100.00;95490.41;5067035;28;20189;-51
2023/10/13 01:04:48;;;;;;;1999.90;999.90;;;;;;;18.20;100.00;95496.38;5067066;28;20176;-51
2023/10/13 01:07:15;;;;;;;1999.90;999.90;;;;;;;18.14;100.00;95494.66;5066229;28;20256;-47
2023/10/13 01:09:42;;;;;;;1999.90;999.90;;;;;;;18.07;100.00;95497.66;5066384;28;20166;-53
2023/10/13 01:12:08;;;;;;;1999.90;999.90;;;;;;;17.99;100.00;95491.59;5066881;28;20162;-50
2023/10/13 01:14:35;;;;;;;1999.90;999.90;;;;;;;17.92;100.00;95496.63;5066271;28;20212;-48
2023/10/13 01:17:01;;;;;;;1999.90;999.90;;;;;;;17.83;100.00;95504.81;5066751;28;20161;-48
2023/10/13 01:19:27;;;;;;;1999.90;999.90;;;;;;;17.76;100.00;95505.06;5066156;28;20174;-48
2023/10/13 01:22:00;;;;;;;1999.90;999.90;;;;;;;17.63;100.00;95490.53;5066908;28;20177;-52
2023/10/13 01:24:31;;;;;;;1999.90;999.90;;;;;;;17.57;100.00;95486.78;5066684;28;20161;-49
2023/10/13 01:26:56;;;;;;;1999.90;999.90;;;;;;;17.51;100.00;95486.56;5066827;28;20174;-48
2023/10/13 01:29:28;;;;;;;1999.90;999.90;;;;;;;17.48;100.00;95495.72;5066048;28;20525;-50
2023/10/13 01:31:54;;;;;;;1999.90;999.90;;;;;;;17.39;100.00;95486.56;5064565;28;20162;-52
2023/10/13 01:34:23;;;;;;;1999.90;999.90;;;;;;;17.32;100.00;95481.25;5066313;28;20269;-48
2023/10/13 01:36:50;;;;;;;1999.90;999.90;;;;;;;17.26;100.00;95478.28;5065875;28;20166;-50
2023/10/13 01:39:17;;;;;;;1999.90;999.90;;;;;;;17.23;100.00;95473.66;5066407;28;20172;-51
2023/10/13 01:41:43;;;;;;;1999.90;999.90;;;;;;;17.23;100.00;95478.41;5065800;28;20192;-51
2023/10/13 01:44:11;;;;;;;1999.90;999.90;;;;;;;17.21;100.00;95481.63;5065730;28;20249;-49
2023/10/13 01:46:37;;;;;;;1999.90;999.90;;;;;;;17.20;100.00;95473.78;5065640;28;20237;-50
2023/10/13 01:49:03;;;;;;;1999.90;999.90;;;;;;;17.18;100.00;95484.47;5065664;28;20162;-50
2023/10/13 01:51:28;;;;;;;1999.90;999.90;;;;;;;17.14;100.00;95487.38;5065626;28;20200;-51
2023/10/13 01:53:56;;;;;;;1999.90;999.90;;;;;;;17.10;100.00;95480.41;5066053;28;20309;-51
2023/10/13 01:56:23;;;;;;;1999.90;999.90;;;;;;;17.05;100.00;95490.03;5066048;28;20180;-47
2023/10/13 01:58:49;;;;;;;1999.90;999.90;;;;;;;17.00;100.00;95487.81;5066135;28;20281;-52
2023/10/13 02:01:26;;;;;;;1999.90;999.90;;;;;;;16.95;100.00;95491.13;5065451;28;20170;-48
2023/10/13 02:04:01;;;;;;;1999.90;999.90;;;;;;;16.88;100.00;95488.59;5065953;28;20212;-53
2023/10/13 02:06:32;;;;;;;1999.90;999.90;;;;;;;16.84;100.00;95495.44;5065275;28;20275;-51
2023/10/13 02:09:02;;;;;;;1999.90;999.90;;;;;;;16.78;100.00;95488.94;5065845;28;20237;-51
2023/10/13 02:11:27;;;;;;;1999.90;999.90;;;;;;;16.74;100.00;95485.47;5065262;28;20226;-51
2023/10/13 02:13:56;;;;;;;1999.90;999.90;;;;;;;16.72;100.00;95493.44;5065425;28;20173;-53
2023/10/13 02:16:22;;;;;;;1999.90;999.90;;;;;;;16.70;100.00;95491.13;5065067;28;20170;-53
2023/10/13 02:18:52;;;;;;;1999.90;999.90;;;;;;;16.69;100.00;95484.06;5065621;28;20177;-52
2023/10/13 02:21:17;;;;;;;1999.90;999.90;;;;;;;16.69;100.00;95488.78;5065570;28;20181;-49
2023/10/13 02:23:46;;;;;;;1999.90;999.90;;;;;;;16.68;100.00;95484.50;5064997;28;20173;-51
2023/10/13 02:26:15;;;;;;;1999.90;999.90;;;;;;;16.66;100.00;95481.41;5064783;28;20223;-53
2023/10/13 02:28:43;;;;;;;1999.90;999.90;;;;;;;16.62;100.00;95489.00;5065449;28;20173;-54
2023/10/13 02:31:11;;;;;;;1999.90;999.90;;;;;;;16.57;100.00;95481.28;5065588;28;20242;-53
2023/10/13 02:33:44;;;;;;;1999.90;999.90;;;;;;;16.52;100.00;95490.09;5064820;28;20162;-49
2023/10/13 02:36:12;;;;;;;1999.90;999.90;;;;;;;16.44;100.00;95482.03;5065277;28;20208;-48
2023/10/13 02:41:37;;;;;;;1999.90;999.90;;;;;;;16.30;100.00;95490.69;5065655;28;20166;-49
2023/10/13 02:44:06;;;;;;;1999.90;999.90;;;;;;;16.23;100.00;95479.88;5064656;28;20203;-48
2023/10/13 02:46:35;;;;;;;1999.90;999.90;;;;;;;16.15;100.00;95484.03;5064575;28;20193;-50
2023/10/13 02:49:02;;;;;;;1999.90;999.90;;;;;;;16.08;100.00;95488.97;5064550;28;20200;-48
2023/10/13 02:51:45;;;;;;;1999.90;999.90;;;;;;;16.01;100.00;95481.69;5064424;28;20459;-47
2023/10/13 02:54:20;;;;;;;1999.90;999.90;;;;;;;15.91;100.00;95474.47;5064914;28;20209;-50
2023/10/13 02:56:59;;;;;;;1999.90;999.90;;;;;;;15.83;100.00;95473.13;5064576;28;20168;-49
2023/10/13 02:59:34;;;;;;;1999.90;999.90;;;;;;;15.76;100.00;95478.81;5064866;28;20237;-51
2023/10/13 03:02:18;;;;;;;1999.90;999.90;;;;;;;15.70;100.00;95475.03;5065066;28;20173;-49
2023/10/13 03:04:47;;;;;;;1999.90;999.90;;;;;;;15.65;100.00;95470.06;5064956;28;20162;-46
2023/10/13 03:07:15;;;;;;;1999.90;999.90;;;;;;;15.59;100.00;95463.53;5064280;28;20242;-46
2023/10/13 03:09:50;;;;;;;1999.90;999.90;;;;;;;15.55;100.00;95465.63;5064194;28;20208;-48
2023/10/13 03:12:16;;;;;;;1999.90;999.90;;;;;;;15.50;100.00;95471.66;5064940;28;20204;-49
2023/10/13 03:14:41;;;;;;;1999.90;999.90;;;;;;;15.48;100.00;95474.06;5064518;28;20257;-49
2023/10/13 03:17:13;;;;;;;1999.90;999.90;;;;;;;15.45;100.00;95463.91;5064566;28;20162;-51
2023/10/13 03:19:46;;;;;;;1999.90;999.90;;;;;;;15.40;100.00;95469.94;5064239;28;20192;-50
2023/10/13 03:22:12;;;;;;;1999.90;999.90;;;;;;;15.38;100.00;95468.84;5064693;28;20169;-49
2023/10/13 03:24:45;;;;;;;1999.90;999.90;;;;;;;15.32;100.00;95465.81;5064635;28;20169;-49
2023/10/13 03:27:16;;;;;;;1999.90;999.90;;;;;;;15.28;100.00;95470.63;5064465;28;20158;-49
2023/10/13 03:29:44;;;;;;;1999.90;999.90;;;;;;;15.24;100.00;95466.41;5063853;28;20159;-49
2023/10/13 03:32:15;;;;;;;1999.90;999.90;;;;;;;15.23;100.00;95471.13;5063992;28;20451;-50
2023/10/13 03:34:49;;;;;;;1999.90;999.90;;;;;;;15.22;100.00;95472.34;5064210;28;20205;-47
2023/10/13 03:37:18;;;;;;;1999.90;999.90;;;;;;;15.20;100.00;95474.75;5064359;28;20166;-46
2023/10/13 03:39:45;;;;;;;1999.90;999.90;;;;;;;15.17;100.00;95472.88;5063654;28;20162;-49
2023/10/13 03:42:18;;;;;;;1999.90;999.90;;;;;;;15.14;100.00;95470.19;5063423;28;20162;-47
2023/10/13 03:44:46;;;;;;;1999.90;999.90;;;;;;;15.12;100.00;95467.09;5064219;28;20220;-51
2023/10/13 03:47:18;;;;;;;1999.90;999.90;;;;;;;15.08;100.00;95467.19;5063755;28;20173;-48
2023/10/13 03:49:45;;;;;;;1999.90;999.90;;;;;;;15.03;100.00;95467.69;5063903;28;20189;-49
2023/10/13 03:52:13;;;;;;;1999.90;999.90;;;;;;;15.01;100.00;95461.84;5064164;28;20168;-50
2023/10/13 03:54:40;;;;;;;1999.90;999.90;;;;;;;14.95;100.00;95457.28;5065662;28;20193;-50
2023/10/13 03:57:11;;;;;;;1999.90;999.90;;;;;;;14.88;100.00;95469.25;5067711;28;20185;-47
2023/10/13 03:59:37;;;;;;;1999.90;999.90;;;;;;;14.81;100.00;95469.41;5067685;28;20172;-50
2023/10/13 04:02:11;;;;;;;1999.90;999.90;;;;;;;14.74;100.00;95469.56;5068158;28;20212;-51
2023/10/13 04:04:49;;;;;;;1999.90;999.90;;;;;;;14.68;100.00;95468.53;5068288;28;20169;-52
2023/10/13 04:07:39;;;;;;;1999.90;999.90;;;;;;;14.64;100.00;95467.06;5067540;28;20233;-49
2023/10/13 04:15:43;;;;;;;1999.90;999.90;;;;;;;14.49;100.00;95455.59;5068400;28;20196;-49
2023/10/13 04:18:33;;;;;;;1999.90;999.90;;;;;;;14.50;100.00;95464.63;5067940;28;20189;-48
2023/10/13 04:21:09;;;;;;;1999.90;999.90;;;;;;;14.47;100.00;95460.78;5067817;28;20386;-49
2023/10/13 04:24:08;;;;;;;1999.90;999.90;;;;;;;14.45;100.00;95457.66;5067827;28;20166;-51
2023/10/13 04:26:35;;;;;;;1999.90;999.90;;;;;;;14.45;100.00;95460.41;5068153;28;20197;-49
2023/10/13 04:29:10;;;;;;;1999.90;999.90;;;;;;;14.45;100.00;95463.16;5067655;28;20443;-51
2023/10/13 04:31:55;;;;;;;1999.90;999.90;;;;;;;14.45;100.00;95457.66;5067900;28;20189;-50
2023/10/13 04:34:27;;;;;;;1999.90;999.90;;;;;;;14.47;100.00;95455.28;5067423;28;20253;-49
2023/10/13 04:37:10;;;;;;;1999.90;999.90;;;;;;;14.45;100.00;95449.41;5067613;28;20237;-51
2023/10/13 04:39:38;;;;;;;1999.90;999.90;;;;;;;14.45;100.00;95449.41;5067704;28;20165;-51
2023/10/13 04:42:13;;;;;;;1999.90;999.90;;;;;;;14.47;100.00;95443.50;5066889;28;20170;-51
2023/10/13 04:47:17;;;;;;;1999.90;999.90;;;;;;;14.44;100.00;95447.88;5067776;28;20233;-48
2023/10/13 04:57:34;;;;;;;1999.90;999.90;;;;;;;14.38;100.00;95451.56;5067597;28;20190;-50
2023/10/13 05:51:43;;;;;;;1999.90;999.90;;;;;;;14.26;100.00;95454.94;5066493;28;20157;-51
2023/10/13 06:29:33;;;;;;;1999.90;999.90;;;;;;;17.57;100.00;95465.47;5065771;28;20218;-48
2023/10/13 06:32:01;;;;;;;1999.90;999.90;;;;;;;17.63;100.00;95463.66;5064611;28;20162;-50
2023/10/13 06:34:46;;;;;;;1999.90;999.90;;;;;;;17.72;100.00;95477.56;5064503;28;20259;-49
2023/10/13 06:37:30;;;;;;;1999.90;999.90;;;;;;;17.67;100.00;95474.59;5065057;28;20162;-53
2023/10/13 06:40:22;;;;;;;1999.90;999.90;;;;;;;17.63;100.00;95477.47;5065205;28;20162;-48
2023/10/13 06:42:50;;;;;;;1999.90;999.90;;;;;;;18.09;100.00;95473.09;5064360;28;20169;-52
2023/10/13 06:45:19;;;;;;;1999.90;999.90;;;;;;;18.55;100.00;95469.44;5064349;28;20185;-51
2023/10/13 06:47:44;;;;;;;1999.90;999.90;;;;;;;19.51;100.00;95475.53;5065248;28;20162;-48
2023/10/13 06:50:16;;;;;;;1999.90;999.90;;;;;;;19.70;100.00;95477.13;5064783;28;20174;-50
2023/10/13 06:52:42;;;;;;;1999.90;999.90;;;;;;;20.01;100.00;95475.75;5065197;28;20166;-51
2023/10/13 06:55:10;;;;;;;1999.90;999.90;;;;;;;20.89;100.00;95478.09;5064658;28;20197;-52
2023/10/13 06:57:36;;;;;;;1999.90;999.90;;;;;;;21.79;95.63;95474.94;5063892;28;20194;-53
2023/10/13 07:00:07;;;;;;;1999.90;999.90;;;;;;;22.61;85.63;95474.28;5064175;28;20169;-51
2023/10/13 07:02:34;;;;;;;1999.90;999.90;;;;;;;23.34;77.69;95486.16;5064780;28;20162;-52
2023/10/13 07:05:11;;;;;;;1999.90;999.90;;;;;;;24.00;72.62;95482.28;5064028;28;20162;-50
2023/10/13 07:07:38;;;;;;;1999.90;999.90;;;;;;;24.17;70.36;95488.06;5064585;28;20213;-48
2023/10/13 07:10:07;;;;;;;1999.90;999.90;;;;;;;24.47;68.15;95487.41;5064653;28;20158;-47
2023/10/13 07:12:33;;;;;;;1999.90;999.90;;;;;;;24.24;69.00;95484.88;5064141;28;20231;-51
2023/10/13 07:17:44;;;;;;;1999.90;999.90;;;;;;;25.09;65.05;95481.94;5065185;28;20146;-51
2023/10/13 07:20:23;;;;;;;1999.90;999.90;;;;;;;25.14;63.78;95474.88;5064316;28;20170;-49
2023/10/13 07:23:03;;;;;;;1999.90;999.90;;;;;;;25.60;61.59;95486.69;5064786;28;20189;-48
2023/10/13 07:25:32;;;;;;;1999.90;999.90;;;;;;;26.34;59.32;95482.53;5063798;28;20164;-46
2023/10/13 07:28:00;;;;;;;1999.90;999.90;;;;;;;26.74;57.28;95482.16;5063421;28;20170;-48
2023/10/13 07:30:27;;;;;;;1999.90;999.90;;;;;;;26.83;55.84;95484.72;5062794;28;20208;-51
2023/10/13 07:32:53;;;;;;;1999.90;999.90;;;;;;;27.14;55.32;95484.50;5063818;28;20244;-52
2023/10/13 07:35:22;;;;;;;1999.90;999.90;;;;;;;27.50;52.89;95483.47;5064048;28;20194;-48
2023/10/13 07:37:54;;;;;;;1999.90;999.90;;;;;;;28.27;50.93;95486.13;5063845;28;20192;-52
2023/10/13 07:43:08;;;;;;;1999.90;999.90;;;;;;;28.71;48.07;95475.97;5064805;28;20154;-48
2023/10/13 07:45:36;;;;;;;1999.90;999.90;;;;;;;28.64;47.22;95476.53;5064146;28;20162;-49
2023/10/13 07:48:12;;;;;;;1999.90;999.90;;;;;;;28.87;47.42;95481.50;5064167;28;20185;-51
2023/10/13 07:50:38;;;;;;;1999.90;999.90;;;;;;;29.32;47.00;95465.84;5063783;28;20161;-49
2023/10/13 07:53:22;;;;;;;1999.90;999.90;;;;;;;29.27;46.40;95477.91;5063961;28;20166;-48
2023/10/13 07:55:53;;;;;;;1999.90;999.90;;;;;;;29.48;45.44;95483.88;5064033;28;20185;-48
2023/10/13 07:58:19;;;;;;;1999.90;999.90;;;;;;;29.83;44.66;95470.50;5063437;28;20221;-47
2023/10/13 08:08:37;;;;;;;1999.90;999.90;;;;;;;30.79;42.87;95469.66;5064484;28;20153;-52
2023/10/13 08:13:58;;;;;;;1999.90;999.90;;;;;;;30.96;42.03;95467.38;5064545;28;20196;-52
2023/10/13 08:19:26;;;;;;;1999.90;999.90;;;;;;;31.82;40.19;95462.88;5064352;28;20165;-51
2023/10/13 08:21:54;;;;;;;1999.90;999.90;;;;;;;32.16;38.72;95458.16;5063805;28;20168;-48
2023/10/13 08:48:15;;;;;;;1999.90;999.90;;;;;;;32.25;37.34;95463.34;5067907;28;20151;-49
2023/10/13 09:09:39;;;;;;;1999.90;999.90;;;;;;;34.13;33.27;95461.81;5067498;28;20233;-49
2023/10/13 09:12:25;;;;;;;1999.90;999.90;;;;;;;34.67;31.16;95447.38;5066906;28;20158;-52
2023/10/13 09:14:58;;;;;;;1999.90;999.90;;;;;;;33.71;32.02;95461.09;5066774;28;20232;-47
2023/10/13 09:17:38;;;;;;;1999.90;999.90;;;;;;;33.98;30.43;95459.63;5066122;28;20165;-50
2023/10/13 09:23:12;;;;;;;1999.90;999.90;;;;;;;33.09;32.01;95446.88;5067492;28;20208;-52
2023/10/13 09:25:53;;;;;;;1999.90;999.90;;;;;;;32.95;31.55;95453.91;5066613;28;20184;-48
2023/10/13 09:28:19;;;;;;;1999.90;999.90;;;;;;;33.34;30.80;95439.63;5066468;28;20177;-49
2023/10/13 09:30:44;;;;;;;1999.90;999.90;;;;;;;33.36;30.61;95447.56;5066326;28;20186;-49
2023/10/13 09:33:15;;;;;;;1999.90;999.90;;;;;;;33.47;30.72;95450.13;5066549;28;20170;-49
2023/10/13 09:35:49;;;;;;;1999.90;999.90;;;;;;;33.36;31.06;95439.81;5066374;28;20186;-48
2023/10/13 09:38:15;;;;;;;1999.90;999.90;;;;;;;33.29;31.21;95440.47;5066352;28;20159;-51
2023/10/13 09:40:50;;;;;;;1999.90;999.90;;;;;;;33.09;30.09;95432.72;5065742;28;20172;-48
2023/10/13 09:43:17;;;;;;;1999.90;999.90;;;;;;;33.72;29.69;95435.03;5066259;28;20162;-48
2023/10/13 09:46:01;;;;;;;1999.90;999.90;;;;;;;34.50;28.13;95432.91;5065711;28;20176;-52
2023/10/13 09:48:45;;;;;;;1999.90;999.90;;;;;;;34.62;28.39;95428.44;5066484;28;20162;-48
2023/10/13 09:51:21;;;;;;;1999.90;999.90;;;;;;;34.21;28.50;95425.72;5064910;28;20154;-47
2023/10/13 09:54:19;;;;;;;1999.90;999.90;;;;;;;33.54;28.62;95430.34;5065972;28;20165;-49
2023/10/13 09:56:56;;;;;;;1999.90;999.90;;;;;;;33.46;29.49;95429.53;5046391;28;20213;-52
2023/10/13 09:59:34;;;;;;;1999.90;999.90;;;;;;;33.88;28.05;95429.50;5065439;28;20161;-49
2023/10/13 10:02:08;;;;;;;1999.90;999.90;;;;;;;34.29;28.18;95426.53;5065816;28;20158;-48
2023/10/13 10:04:41;;;;;;;1999.90;999.90;;;;;;;35.68;26.73;95424.50;5065698;28;20155;-50
2023/10/13 10:07:08;;;;;;;1999.90;999.90;;;;;;;36.30;26.62;95422.59;5065697;28;20213;-48
2023/10/13 10:09:34;;;;;;;1999.90;999.90;;;;;;;35.40;26.29;95416.19;5065704;28;20197;-48
2023/10/13 10:12:21;;;;;;;1999.90;999.90;;;;;;;33.40;28.04;95420.38;5065795;28;20166;-51
2023/10/13 10:15:35;;;;;;;1999.90;999.90;;;;;;;33.33;29.40;95420.31;5065594;28;20198;-48
2023/10/13 10:18:04;;;;;;;1999.90;999.90;;;;;;;32.47;30.25;95425.38;5065572;28;20162;-47
2023/10/13 10:20:42;;;;;;;1999.90;999.90;;;;;;;31.95;30.48;95414.09;5065689;28;20289;-48
2023/10/13 10:23:12;;;;;;;1999.90;999.90;;;;;;;34.54;28.32;95404.91;5065793;28;20208;-48
2023/10/13 10:25:38;;;;;;;1999.90;999.90;;;;;;;36.37;26.38;95403.97;5065405;28;20174;-47
2023/10/13 10:28:05;;;;;;;1999.90;999.90;;;;;;;36.47;25.14;95407.75;5064924;28;20170;-49
2023/10/13 10:30:35;;;;;;;1999.90;999.90;;;;;;;37.04;24.68;95408.66;5064962;28;20170;-51
2023/10/13 10:33:07;;;;;;;1999.90;999.90;;;;;;;37.20;24.13;95407.25;5064854;28;20177;-49
2023/10/13 10:35:33;;;;;;;1999.90;999.90;;;;;;;36.73;24.48;95407.28;5065210;28;20193;-47
2023/10/13 10:38:15;;;;;;;1999.90;999.90;;;;;;;35.73;24.16;95403.69;5065300;28;20291;-47
2023/10/13 10:41:06;;;;;;;1999.90;999.90;;;;;;;36.64;24.13;95393.63;5065482;28;20164;-52
2023/10/13 10:43:45;;;;;;;1999.90;999.90;;;;;;;35.86;23.94;95387.19;5064590;28;20158;-50
2023/10/13 10:46:18;;;;;;;1999.90;999.90;;;;;;;36.38;23.41;95388.44;5065011;28;20216;-50
2023/10/13 10:48:44;;;;;;;1999.90;999.90;;;;;;;36.14;22.63;95391.88;5064437;28;20166;-52
2023/10/13 10:51:15;;;;;;;1999.90;999.90;;;;;;;36.32;21.87;95373.63;5064955;28;20177;-54
2023/10/13 10:53:43;;;;;;;1999.90;999.90;;;;;;;35.35;23.17;95368.78;5064865;28;20197;-49
2023/10/13 10:56:19;;;;;;;1999.90;999.90;;;;;;;35.67;23.97;95366.13;5064916;28;20190;-49
2023/10/13 10:58:54;;;;;;;1999.90;999.90;;;;;;;35.21;24.42;95358.94;5064772;28;20243;-47
2023/10/13 11:01:24;;;;;;;1999.90;999.90;;;;;;;32.99;26.03;95358.06;5064906;28;20161;-48
2023/10/13 11:04:07;;;;;;;1999.90;999.90;;;;;;;31.71;26.30;95357.75;5063916;28;20162;-52
2023/10/13 11:06:38;;;;;;;1999.90;999.90;;;;;;;30.60;27.84;95350.41;5064143;28;20217;-48
2023/10/13 11:09:18;;;;;;;1999.90;999.90;;;;;;;29.85;29.30;95343.19;5064884;28;20165;-53
2023/10/13 11:11:44;;;;;;;1999.90;999.90;;;;;;;29.47;30.61;95330.31;5064698;28;20177;-52
2023/10/13 11:14:22;;;;;;;1999.90;999.90;;;;;;;28.84;29.99;95332.72;5064561;28;20169;-49
2023/10/13 11:16:50;;;;;;;1999.90;999.90;;;;;;;28.65;30.63;95334.66;5064492;28;20205;-50
2023/10/13 11:19:17;;;;;;;1999.90;999.90;;;;;;;28.38;31.12;95324.34;5063974;28;20169;-48
2023/10/13 11:21:42;;;;;;;1999.90;999.90;;;;;;;28.27;31.77;95314.69;5063845;28;20161;-53
2023/10/13 11:24:11;;;;;;;1999.90;999.90;;;;;;;28.09;32.48;95323.75;5063859;28;20200;-50
2023/10/13 11:26:49;;;;;;;1999.90;999.90;;;;;;;28.34;32.03;95310.59;5063677;28;20173;-49
2023/10/13 11:29:19;;;;;;;1999.90;999.90;;;;;;;28.08;32.34;95315.88;5064496;28;20162;-51
2023/10/13 11:31:58;;;;;;;1999.90;999.90;;;;;;;27.95;32.22;95310.84;5063790;28;20252;-53
2023/10/13 11:34:24;;;;;;;1999.90;999.90;;;;;;;27.75;32.52;95299.91;5064327;28;20157;-52
2023/10/13 11:36:50;;;;;;;1999.90;999.90;;;;;;;27.73;32.24;95290.50;5063715;28;20173;-52
2023/10/13 11:39:23;;;;;;;1999.90;999.90;;;;;;;27.65;32.37;95297.94;5064317;28;20166;-51
2023/10/13 11:41:55;;;;;;;1999.90;999.90;;;;;;;27.53;33.22;95294.41;5064116;28;20162;-52
2023/10/13 11:51:52;;;;;;;1999.90;999.90;;;;;;;27.46;33.82;95275.28;5064693;28;20142;-53
2023/10/13 11:54:19;;;;;;;1999.90;999.90;;;;;;;27.47;34.09;95273.25;5063399;28;20158;-47
2023/10/13 11:56:45;;;;;;;1999.90;999.90;;;;;;;27.54;34.43;95273.47;5063556;28;20162;-48
2023/10/13 11:59:17;;;;;;;1999.90;999.90;;;;;;;27.39;32.79;95261.81;5063570;28;20239;-48
2023/10/13 12:04:54;;;;;;;1999.90;999.90;;;;;;;27.38;34.45;95254.66;5064707;28;20149;-51
2023/10/13 12:07:23;;;;;;;1999.90;999.90;;;;;;;27.35;34.73;95261.31;5063650;28;20240;-49
2023/10/13 12:12:25;;;;;;;1999.90;999.90;;;;;;;27.52;33.16;95250.00;5064659;28;20150;-48
2023/10/13 12:14:58;;;;;;;1999.90;999.90;;;;;;;27.43;33.85;95242.66;5064022;28;20200;-47
2023/10/13 12:17:28;;;;;;;1999.90;999.90;;;;;;;27.38;34.82;95242.66;5067722;28;20162;-47
2023/10/13 12:19:57;;;;;;;1999.90;999.90;;;;;;;27.53;34.81;95237.53;5067775;28;20189;-49
2023/10/13 12:22:35;;;;;;;1999.90;999.90;;;;;;;27.52;35.64;95225.53;5067609;28;20170;-48
2023/10/13 12:25:05;;;;;;;1999.90;999.90;;;;;;;27.56;34.87;95231.63;5067554;28;20157;-49
2023/10/13 12:27:45;;;;;;;1999.90;999.90;;;;;;;27.44;34.42;95224.56;5067525;28;20208;-46
2023/10/13 12:30:22;;;;;;;1999.90;999.90;;;;;;;27.42;34.95;95218.69;5067678;28;20172;-49
2023/10/13 12:32:58;;;;;;;1999.90;999.90;;;;;;;27.49;35.48;95217.38;5067574;28;20177;-48
2023/10/13 12:35:30;;;;;;;1999.90;999.90;;;;;;;27.42;35.36;95215.88;5067427;28;20204;-48
2023/10/13 12:38:04;;;;;;;1999.90;999.90;;;;;;;27.39;36.51;95210.53;5067543;28;20158;-50
2023/10/13 12:53:55;;;;;;;1999.90;999.90;;;;;;;27.38;34.77;95197.78;5067685;28;20166;-47
2023/10/13 12:56:29;;;;;;;1999.90;999.90;;;;;;;27.38;34.17;95187.31;5066838;28;20228;-47
2023/10/13 12:58:55;;;;;;;1999.90;999.90;;;;;;;27.39;34.54;95177.63;5066448;28;20188;-48
2023/10/13 13:01:26;;;;;;;1999.90;999.90;;;;;;;27.37;34.71;95177.38;5066454;28;20166;-52
2023/10/13 13:03:55;;;;;;;1999.90;999.90;;;;;;;27.38;34.40;95176.09;5067184;28;20216;-49
2023/10/13 13:06:30;;;;;;;1999.90;999.90;;;;;;;27.31;35.12;95173.84;5066645;28;20300;-50
2023/10/13 13:09:00;;;;;;;1999.90;999.90;;;;;;;27.30;35.43;95180.75;5067120;28;20165;-47
2023/10/13 13:11:28;;;;;;;1999.90;999.90;;;;;;;27.46;35.13;95165.84;5066087;28;20162;-49
2023/10/13 13:13:54;;;;;;;1999.90;999.90;;;;;;;27.34;35.38;95164.41;5066237;28;20170;-49
2023/10/13 13:16:23;;;;;;;1999.90;999.90;;;;;;;27.34;34.87;95158.00;5066175;28;20220;-49
2023/10/13 13:18:49;;;;;;;1999.90;999.90;;;;;;;27.26;35.55;95152.19;5066207;28;20170;-48
2023/10/13 13:21:24;;;;;;;1999.90;999.90;;;;;;;27.35;35.45;95148.34;5065961;28;20243;-50
2023/10/13 13:23:50;;;;;;;1999.90;999.90;;;;;;;27.35;35.73;95148.34;5066699;28;20169;-51
2023/10/13 13:26:15;;;;;;;1999.90;999.90;;;;;;;27.39;35.54;95138.34;5065869;28;20248;-49
2023/10/13 13:28:50;;;;;;;1999.90;999.90;;;;;;;27.38;35.16;95136.81;5066545;28;20170;-52
2023/10/13 13:31:25;;;;;;;1999.90;999.90;;;;;;;27.25;35.66;95145.06;5066629;28;20162;-52
2023/10/13 13:33:50;;;;;;;1999.90;999.90;;;;;;;27.15;36.33;95135.41;5066514;28;20157;-52
2023/10/13 13:36:15;;;;;;;1999.90;999.90;;;;;;;27.15;35.81;95134.63;5066373;28;20197;-51
2023/10/13 13:38:42;;;;;;;1999.90;999.90;;;;;;;27.21;35.09;95126.97;5065816;28;20245;-48
2023/10/13 13:41:16;;;;;;;1999.90;999.90;;;;;;;26.99;35.11;95122.19;5065754;28;20254;-48
2023/10/13 13:46:18;;;;;;;1999.90;999.90;;;;;;;26.87;35.98;95126.34;5066694;28;20169;-49
2023/10/13 13:48:47;;;;;;;1999.90;999.90;;;;;;;26.81;35.87;95114.38;5065818;28;20166;-48
2023/10/13 13:51:19;;;;;;;1999.90;999.90;;;;;;;26.86;36.84;95108.00;5066124;28;20189;-51
2023/10/13 13:53:48;;;;;;;1999.90;999.90;;;;;;;27.00;36.90;95111.75;5066200;28;20180;-50
2023/10/13 13:56:18;;;;;;;1999.90;999.90;;;;;;;26.89;35.92;95101.38;5065398;28;20220;-53
2023/10/13 13:58:48;;;;;;;1999.90;999.90;;;;;;;26.87;35.87;95101.13;5065446;28;20190;-48
2023/10/13 14:01:14;;;;;;;1999.90;999.90;;;;;;;26.85;35.98;95100.88;5065823;28;20177;-55
2023/10/13 14:03:47;;;;;;;1999.90;999.90;;;;;;;26.92;36.25;95094.72;5066025;28;20238;-48
2023/10/13 14:06:18;;;;;;;1999.90;999.90;;;;;;;26.77;35.94;95099.88;5065611;28;20221;-51
2023/10/13 14:08:48;;;;;;;1999.90;999.90;;;;;;;26.75;36.63;95087.66;5065918;28;20177;-54
2023/10/13 14:11:13;;;;;;;1999.90;999.90;;;;;;;26.77;36.80;95091.47;5065690;28;20177;-52
2023/10/13 14:13:48;;;;;;;1999.90;999.90;;;;;;;26.75;36.42;95090.47;5065070;28;20170;-54
2023/10/13 14:16:18;;;;;;;1999.90;999.90;;;;;;;26.81;35.90;95080.75;5065807;28;20198;-57
2023/10/13 14:18:47;;;;;;;1999.90;999.90;;;;;;;26.79;36.58;95076.94;5065104;28;20170;-51
2023/10/13 14:21:19;;;;;;;1999.90;999.90;;;;;;;26.82;36.38;95073.88;5065428;28;20170;-50
2023/10/13 14:23:49;;;;;;;1999.90;999.90;;;;;;;26.88;36.11;95066.19;5065409;28;20265;-51
2023/10/13 14:26:21;;;;;;;1999.90;999.90;;;;;;;26.84;35.53;95065.69;5064813;28;20174;-54
2023/10/13 14:29:05;;;;;;;1999.90;999.90;;;;;;;26.77;36.26;95066.25;5065667;28;20170;-52
2023/10/13 14:31:31;;;;;;;1999.90;999.90;;;;;;;26.63;37.03;95064.53;5065344;28;20162;-53